createdAt,value
2023-02-13T00:00:02.319Z,8.03
2023-02-13T00:02:29.011Z,7.53
2023-02-13T00:04:55.645Z,8.60
2023-02-13T00:07:22.250Z,9.97
2023-02-13T00:09:48.927Z,8.33
2023-02-13T00:12:15.550Z,8.57
2023-02-13T00:14:42.186Z,8.13
2023-02-13T00:17:08.935Z,8.67
2023-02-13T00:19:35.600Z,8.33
2023-02-13T00:22:02.297Z,7.33
2023-02-13T00:24:28.943Z,9.20
2023-02-13T00:26:55.605Z,8.33
2023-02-13T00:29:22.271Z,9.27
2023-02-13T00:31:49.009Z,7.60
2023-02-13T00:34:15.736Z,9.77
2023-02-13T00:36:42.450Z,9.50
2023-02-13T00:39:11.547Z,9.10
2023-02-13T00:41:39.118Z,8.30
2023-02-13T00:44:05.853Z,9.90
2023-02-13T00:46:32.625Z,9.43
2023-02-13T00:48:59.319Z,8.73
2023-02-13T00:51:25.983Z,8.57
2023-02-13T00:53:52.646Z,9.23
2023-02-13T00:56:19.272Z,9.57
2023-02-13T00:58:46.277Z,9.40
2023-02-13T01:01:12.982Z,7.83
2023-02-13T01:03:40.058Z,8.60
2023-02-13T01:06:07.502Z,10.00
2023-02-13T01:08:34.630Z,10.10
2023-02-13T01:11:01.346Z,9.47
2023-02-13T01:13:27.983Z,10.60
2023-02-13T01:15:54.817Z,9.13
2023-02-13T01:18:21.498Z,9.67
2023-02-13T01:21:01.041Z,9.33
2023-02-13T01:23:34.994Z,7.63
2023-02-13T01:26:04.307Z,8.33
2023-02-13T01:28:31.024Z,8.37
2023-02-13T01:30:58.764Z,8.50
2023-02-13T01:33:27.802Z,9.80
2023-02-13T01:35:54.870Z,8.20
2023-02-13T01:38:21.707Z,7.07
2023-02-13T01:40:52.803Z,7.80
2023-02-13T01:43:23.334Z,8.00
2023-02-13T01:45:53.680Z,7.40
2023-02-13T01:48:24.078Z,8.33
2023-02-13T01:51:14.774Z,8.73
2023-02-13T01:53:50.362Z,8.80
2023-02-13T01:56:38.823Z,7.90
2023-02-13T01:59:08.952Z,8.50
2023-02-13T02:01:36.818Z,8.07
2023-02-13T02:04:23.055Z,8.73
2023-02-13T02:06:55.675Z,9.90
2023-02-13T02:09:26.035Z,8.53
2023-02-13T02:11:59.362Z,8.20
2023-02-13T02:14:27.493Z,8.53
2023-02-13T02:16:54.279Z,7.97
2023-02-13T02:19:36.989Z,8.27
2023-02-13T02:22:09.519Z,6.90
2023-02-13T02:25:06.951Z,8.00
2023-02-13T02:27:41.541Z,6.93
2023-02-13T02:30:17.396Z,7.90
2023-02-13T02:33:01.813Z,6.53
2023-02-13T02:35:37.305Z,8.30
2023-02-13T02:38:40.137Z,8.50
2023-02-13T02:41:33.707Z,7.13
2023-02-13T02:44:09.147Z,7.63
2023-02-13T02:47:17.272Z,6.53
2023-02-13T02:50:01.944Z,9.03
2023-02-13T02:52:43.671Z,6.93
2023-02-13T02:55:26.404Z,8.30
2023-02-13T02:58:21.285Z,6.63
2023-02-13T03:01:08.091Z,6.87
2023-02-13T03:03:54.104Z,7.80
2023-02-13T03:06:28.128Z,7.97
2023-02-13T03:09:17.395Z,6.73
2023-02-13T03:12:09.971Z,6.93
2023-02-13T03:14:37.505Z,7.93
2023-02-13T03:17:24.106Z,6.33
2023-02-13T03:20:18.572Z,7.67
2023-02-13T03:23:07.296Z,8.33
2023-02-13T03:25:39.185Z,6.77
2023-02-13T03:28:47.294Z,7.20
2023-02-13T03:31:32.717Z,6.77
2023-02-13T03:34:06.461Z,8.57
2023-02-13T03:37:07.717Z,9.27
2023-02-13T03:39:43.311Z,7.93
2023-02-13T03:42:19.616Z,7.53
2023-02-13T03:45:19.789Z,7.10
2023-02-13T03:47:47.744Z,7.27
2023-02-13T03:50:15.262Z,8.47
2023-02-13T03:52:51.406Z,7.00
2023-02-13T03:56:00.926Z,6.43
2023-02-13T03:58:49.974Z,8.73
2023-02-13T04:01:19.283Z,7.93
2023-02-13T04:03:51.091Z,8.10
2023-02-13T04:06:24.883Z,8.60
2023-02-13T04:08:51.557Z,6.97
2023-02-13T04:11:24.135Z,6.90
2023-02-13T04:13:57.024Z,6.60
2023-02-13T04:16:40.155Z,7.93
2023-02-13T04:19:08.149Z,6.93
2023-02-13T04:21:35.780Z,7.10
2023-02-13T04:24:02.800Z,7.07
2023-02-13T04:26:43.090Z,8.77
2023-02-13T04:29:10.257Z,7.90
2023-02-13T04:31:37.126Z,8.30
2023-02-13T04:34:03.866Z,8.43
2023-02-13T04:36:30.790Z,8.60
2023-02-13T04:38:57.597Z,8.00
2023-02-13T04:41:24.383Z,7.43
2023-02-13T04:43:52.427Z,7.00
2023-02-13T04:46:19.211Z,7.37
2023-02-13T04:48:45.999Z,7.93
2023-02-13T04:51:12.820Z,6.97
2023-02-13T04:53:39.495Z,7.10
2023-02-13T04:56:06.352Z,7.50
2023-02-13T04:58:33.117Z,6.57
2023-02-13T05:01:00.101Z,8.33
2023-02-13T05:03:26.876Z,7.90
2023-02-13T05:05:53.562Z,7.30
2023-02-13T05:08:20.364Z,8.27
2023-02-13T05:10:47.221Z,7.23
2023-02-13T05:13:14.018Z,7.90
2023-02-13T05:15:40.696Z,7.43
2023-02-13T05:18:07.387Z,7.23
2023-02-13T05:20:34.078Z,6.77
2023-02-13T05:23:19.253Z,7.17
2023-02-13T05:25:45.879Z,7.27
2023-02-13T05:28:31.030Z,7.97
2023-02-13T05:30:58.147Z,7.67
2023-02-13T05:33:25.546Z,9.30
2023-02-13T05:35:52.169Z,8.83
2023-02-13T05:38:18.949Z,8.80
2023-02-13T05:40:45.728Z,8.70
2023-02-13T05:43:12.398Z,8.43
2023-02-13T05:45:39.006Z,8.53
2023-02-13T05:48:05.760Z,7.77
2023-02-13T05:50:32.380Z,8.90
2023-02-13T05:52:59.213Z,7.77
2023-02-13T05:55:25.866Z,7.93
2023-02-13T05:57:57.414Z,8.63
2023-02-13T06:00:24.536Z,7.77
2023-02-13T06:02:51.294Z,7.93
2023-02-13T06:05:17.998Z,9.03
2023-02-13T06:07:44.657Z,9.33
2023-02-13T06:10:11.595Z,9.37
2023-02-13T06:12:38.228Z,7.87
2023-02-13T06:15:05.624Z,7.73
2023-02-13T06:17:32.225Z,7.93
2023-02-13T06:19:58.844Z,8.43
2023-02-13T06:22:25.465Z,7.80
2023-02-13T06:24:52.166Z,9.93
2023-02-13T06:27:18.772Z,8.30
2023-02-13T06:29:45.655Z,8.63
2023-02-13T06:32:12.307Z,8.27
2023-02-13T06:34:39.137Z,9.47
2023-02-13T06:37:05.784Z,8.07
2023-02-13T06:39:32.559Z,9.23
2023-02-13T06:41:59.253Z,8.40
2023-02-13T06:44:25.901Z,7.60
2023-02-13T06:46:52.650Z,9.03
2023-02-13T06:49:19.580Z,9.20
2023-02-13T06:51:46.246Z,8.37
2023-02-13T06:54:12.902Z,9.03
2023-02-13T06:56:39.589Z,8.67
2023-02-13T06:59:06.344Z,7.77
2023-02-13T07:01:33.012Z,8.10
2023-02-13T07:03:59.798Z,6.43
2023-02-13T07:06:26.602Z,9.07
2023-02-13T07:08:55.864Z,8.43
2023-02-13T07:11:24.850Z,9.47
2023-02-13T07:13:51.500Z,8.03
2023-02-13T07:16:18.474Z,7.53
2023-02-13T07:18:45.278Z,9.03
2023-02-13T07:21:12.393Z,8.07
2023-02-13T07:23:39.152Z,5.90
2023-02-13T07:26:05.825Z,7.93
2023-02-13T07:28:32.785Z,9.33
2023-02-13T07:31:04.867Z,8.13
2023-02-13T07:33:32.914Z,7.87
2023-02-13T07:36:00.057Z,8.13
2023-02-13T07:38:26.744Z,8.33
2023-02-13T07:40:53.398Z,7.80
2023-02-13T07:43:20.120Z,7.83
2023-02-13T07:45:47.031Z,7.80
2023-02-13T07:48:13.937Z,7.10
2023-02-13T07:50:40.658Z,7.30
2023-02-13T07:53:07.877Z,6.93
2023-02-13T07:55:34.497Z,6.40
2023-02-13T07:58:01.814Z,8.27
2023-02-13T08:00:28.755Z,6.97
2023-02-13T08:02:55.402Z,6.60
2023-02-13T08:05:22.100Z,8.20
2023-02-13T08:07:48.906Z,7.50
2023-02-13T08:10:34.883Z,7.07
2023-02-13T08:13:01.534Z,7.50
2023-02-13T08:15:28.368Z,8.33
2023-02-13T08:17:55.092Z,7.53
2023-02-13T08:20:21.735Z,7.03
2023-02-13T08:22:48.385Z,6.80
2023-02-13T08:25:15.100Z,7.50
2023-02-13T08:27:41.819Z,7.43
2023-02-13T08:30:10.016Z,10.00
2023-02-13T08:32:52.844Z,8.80
2023-02-13T08:35:20.550Z,8.13
2023-02-13T08:37:47.716Z,9.53
2023-02-13T08:40:14.835Z,10.73
2023-02-13T08:42:41.639Z,9.80
2023-02-13T08:45:10.496Z,9.63
2023-02-13T08:47:40.525Z,10.30
2023-02-13T08:50:07.769Z,9.70
2023-02-13T08:52:34.608Z,9.37
2023-02-13T08:55:03.419Z,10.93
2023-02-13T08:57:31.111Z,11.47
2023-02-13T08:59:57.740Z,11.27
2023-02-13T09:02:24.540Z,10.70
2023-02-13T09:04:51.304Z,12.00
2023-02-13T09:07:17.973Z,12.50
2023-02-13T09:09:44.670Z,10.37
2023-02-13T09:12:11.341Z,13.20
2023-02-13T09:14:39.234Z,10.23
2023-02-13T09:17:06.161Z,12.03
2023-02-13T09:19:32.810Z,11.27
2023-02-13T09:21:59.587Z,10.30
2023-02-13T09:24:26.501Z,11.47
2023-02-13T09:26:53.126Z,11.23
2023-02-13T09:29:19.933Z,11.53
2023-02-13T09:31:46.825Z,11.63
2023-02-13T09:34:13.908Z,10.80
2023-02-13T09:36:40.556Z,12.37
2023-02-13T09:39:07.234Z,11.40
2023-02-13T09:41:37.227Z,12.07
2023-02-13T09:44:33.920Z,12.27
2023-02-13T09:47:08.137Z,13.47
2023-02-13T09:49:39.085Z,12.47
2023-02-13T09:52:05.904Z,10.93
2023-02-13T09:54:32.637Z,12.97
2023-02-13T09:57:08.172Z,12.97
2023-02-13T09:59:43.673Z,11.83
2023-02-13T10:02:44.473Z,12.63
2023-02-13T10:05:27.188Z,11.97
2023-02-13T10:08:09.795Z,11.43
2023-02-13T10:10:51.517Z,10.43
2023-02-13T10:14:06.448Z,11.20
2023-02-13T10:16:40.800Z,11.27
2023-02-13T10:19:33.393Z,10.17
2023-02-13T10:22:31.178Z,11.47
2023-02-13T10:25:03.435Z,10.97
2023-02-13T10:27:36.264Z,11.50
2023-02-13T10:30:09.298Z,10.33
2023-02-13T10:33:18.702Z,12.50
2023-02-13T10:36:10.145Z,11.30
2023-02-13T10:39:05.372Z,10.90
2023-02-13T10:42:13.507Z,11.13
2023-02-13T10:44:58.322Z,11.87
2023-02-13T10:47:44.157Z,9.87
2023-02-13T10:50:13.682Z,10.90
2023-02-13T10:52:57.689Z,11.20
2023-02-13T10:56:21.600Z,11.00
2023-02-13T10:58:50.990Z,8.97
2023-02-13T11:01:47.788Z,9.57
2023-02-13T11:04:17.891Z,10.70
2023-02-13T11:06:51.235Z,9.23
2023-02-13T11:09:17.943Z,9.73
2023-02-13T11:11:44.948Z,8.47
2023-02-13T11:14:14.781Z,8.50
2023-02-13T11:16:52.079Z,10.27
2023-02-13T11:19:39.562Z,10.13
2023-02-13T11:22:13.552Z,8.90
2023-02-13T11:24:52.150Z,8.13
2023-02-13T11:27:24.722Z,11.10
2023-02-13T11:29:57.072Z,8.67
2023-02-13T11:32:34.371Z,9.20
2023-02-13T11:35:30.922Z,9.53
2023-02-13T11:38:15.814Z,9.37
2023-02-13T11:40:52.037Z,10.17
2023-02-13T11:43:23.758Z,8.40
2023-02-13T11:46:07.740Z,9.47
2023-02-13T11:48:34.874Z,7.73
2023-02-13T11:51:01.683Z,8.13
2023-02-13T11:53:32.018Z,8.83
2023-02-13T11:56:10.794Z,7.30
2023-02-13T11:58:37.736Z,10.97
2023-02-13T12:01:10.632Z,10.33
2023-02-13T12:03:38.874Z,8.10
2023-02-13T12:06:15.623Z,8.73
2023-02-13T12:08:46.473Z,9.43
2023-02-13T12:11:35.719Z,10.13
2023-02-13T12:14:02.534Z,8.47
2023-02-13T12:16:41.263Z,8.00
2023-02-13T12:19:13.008Z,9.37
2023-02-13T12:21:45.433Z,8.30
2023-02-13T12:24:55.423Z,7.97
2023-02-13T12:27:45.958Z,8.57
2023-02-13T12:30:15.990Z,8.37
2023-02-13T12:32:55.665Z,7.80
2023-02-13T12:35:46.536Z,9.40
2023-02-13T12:38:22.177Z,8.73
2023-02-13T12:41:27.235Z,10.97
2023-02-13T12:44:06.035Z,9.67
2023-02-13T12:46:52.646Z,9.43
2023-02-13T12:49:53.934Z,8.40
2023-02-13T12:52:44.705Z,9.30
2023-02-13T12:55:35.456Z,9.00
2023-02-13T12:58:02.033Z,8.77
2023-02-13T13:00:49.078Z,9.73
2023-02-13T13:03:31.279Z,8.57
2023-02-13T13:06:35.657Z,7.73
2023-02-13T13:09:21.278Z,8.87
2023-02-13T13:12:01.885Z,8.27
2023-02-13T13:14:45.469Z,8.20
2023-02-13T13:17:39.482Z,7.73
2023-02-13T13:20:37.019Z,8.10
2023-02-13T13:23:18.033Z,8.00
2023-02-13T13:26:02.239Z,8.97
2023-02-13T13:28:36.473Z,8.03
2023-02-13T13:31:03.807Z,7.70
2023-02-13T13:33:31.286Z,7.90
2023-02-13T13:36:05.553Z,7.97
2023-02-13T13:38:52.479Z,7.80
2023-02-13T13:41:35.267Z,8.13
2023-02-13T13:44:20.180Z,9.67
2023-02-13T13:47:04.355Z,7.33
2023-02-13T13:49:54.027Z,7.03
2023-02-13T13:52:20.917Z,7.10
2023-02-13T13:54:51.532Z,7.20
2023-02-13T13:57:20.014Z,7.87
2023-02-13T13:59:51.572Z,7.50
2023-02-13T14:02:18.302Z,6.30
2023-02-13T14:05:09.380Z,7.37
2023-02-13T14:07:43.400Z,6.37
2023-02-13T14:10:21.876Z,6.77
2023-02-13T14:12:55.838Z,7.43
2023-02-13T14:15:34.882Z,7.37
2023-02-13T14:18:11.705Z,6.13
2023-02-13T14:20:41.778Z,7.47
2023-02-13T14:23:37.828Z,5.67
2023-02-13T14:26:16.011Z,5.73
2023-02-13T14:28:49.074Z,5.47
2023-02-13T14:31:34.710Z,5.60
2023-02-13T14:34:07.204Z,5.77
2023-02-13T14:36:39.756Z,6.20
2023-02-13T14:39:27.181Z,6.50
2023-02-13T14:41:56.803Z,6.13
2023-02-13T14:44:43.597Z,6.30
2023-02-13T14:47:31.915Z,5.37
2023-02-13T14:50:00.158Z,5.83
2023-02-13T14:52:29.896Z,5.50
2023-02-13T14:55:05.793Z,5.80
2023-02-13T14:57:43.147Z,6.20
2023-02-13T15:00:39.254Z,5.83
2023-02-13T15:03:28.293Z,7.73
2023-02-13T15:06:01.629Z,5.50
2023-02-13T15:08:35.949Z,6.17
2023-02-13T15:11:03.396Z,6.67
2023-02-13T15:13:35.927Z,5.90
2023-02-13T15:16:08.771Z,6.67
2023-02-13T15:18:38.392Z,7.00
2023-02-13T15:21:05.328Z,6.57
2023-02-13T15:23:33.960Z,6.00
2023-02-13T15:26:06.132Z,6.93
2023-02-13T15:28:34.109Z,6.20
2023-02-13T15:31:22.201Z,6.70
2023-02-13T15:33:50.573Z,6.40
2023-02-13T15:36:21.188Z,5.87
2023-02-13T15:38:48.077Z,5.80
2023-02-13T15:41:20.276Z,5.43
2023-02-13T15:43:49.969Z,5.80
2023-02-13T15:46:24.830Z,5.97
2023-02-13T15:48:56.472Z,6.60
2023-02-13T15:51:25.476Z,6.23
2023-02-13T15:53:55.825Z,5.80
2023-02-13T15:56:23.310Z,5.97
2023-02-13T15:58:50.946Z,6.10
2023-02-13T16:01:17.933Z,5.33
2023-02-13T16:03:49.610Z,5.40
2023-02-13T16:06:17.998Z,5.90
2023-02-13T16:08:52.000Z,5.40
2023-02-13T16:11:32.655Z,5.40
2023-02-13T16:14:21.621Z,5.83
2023-02-13T16:17:13.056Z,5.10
2023-02-13T16:19:39.651Z,5.20
2023-02-13T16:22:17.616Z,5.47
2023-02-13T16:24:56.174Z,5.20
2023-02-13T16:27:28.445Z,5.17
2023-02-13T16:30:01.132Z,5.00
2023-02-13T16:32:30.327Z,4.70
2023-02-13T16:34:57.525Z,5.70
2023-02-13T16:37:28.000Z,5.80
2023-02-13T16:39:54.738Z,4.80
2023-02-13T16:42:21.436Z,4.83
2023-02-13T16:44:48.378Z,5.27
2023-02-13T16:47:24.161Z,5.97
2023-02-13T16:49:57.050Z,4.53
2023-02-13T16:52:27.629Z,5.00
2023-02-13T16:54:59.904Z,5.33
2023-02-13T16:57:32.340Z,4.83
2023-02-13T17:00:19.146Z,5.87
2023-02-13T17:02:46.980Z,5.80
2023-02-13T17:05:32.080Z,5.20
2023-02-13T17:08:01.504Z,5.37
2023-02-13T17:10:33.901Z,5.07
2023-02-13T17:13:13.014Z,5.27
2023-02-13T17:15:44.873Z,4.87
2023-02-13T17:18:11.578Z,5.67
2023-02-13T17:20:50.376Z,5.70
2023-02-13T17:23:22.436Z,5.20
2023-02-13T17:25:59.568Z,6.50
2023-02-13T17:28:33.245Z,5.63
2023-02-13T17:31:01.379Z,5.70
2023-02-13T17:33:30.683Z,5.17
2023-02-13T17:35:58.926Z,5.40
2023-02-13T17:38:25.595Z,6.50
2023-02-13T17:40:52.298Z,5.87
2023-02-13T17:43:19.877Z,5.47
2023-02-13T17:45:47.309Z,6.47
2023-02-13T17:48:14.079Z,5.80
2023-02-13T17:50:41.252Z,6.13
2023-02-13T17:53:16.299Z,6.93
2023-02-13T17:55:43.179Z,6.07
2023-02-13T17:58:09.820Z,6.37
2023-02-13T18:00:36.521Z,7.90
2023-02-13T18:03:04.080Z,6.33
2023-02-13T18:05:33.096Z,6.93
2023-02-13T18:08:02.631Z,6.53
2023-02-13T18:10:31.476Z,6.00
2023-02-13T18:13:03.976Z,7.53
2023-02-13T18:15:36.172Z,7.37
2023-02-13T18:18:03.139Z,8.17
2023-02-13T18:20:29.954Z,6.83
2023-02-13T18:22:56.608Z,7.60
2023-02-13T18:25:23.701Z,7.00
2023-02-13T18:27:50.791Z,8.13
2023-02-13T18:30:19.328Z,7.23
2023-02-13T18:32:46.483Z,8.00
2023-02-13T18:35:13.192Z,7.27
2023-02-13T18:37:39.996Z,8.87
2023-02-13T18:40:08.075Z,9.30
2023-02-13T18:42:35.956Z,7.10
2023-02-13T18:45:03.305Z,7.03
2023-02-13T18:47:30.001Z,7.97
2023-02-13T18:49:56.738Z,9.07
2023-02-13T18:52:23.454Z,7.60
2023-02-13T18:54:50.181Z,7.63
2023-02-13T18:57:16.933Z,7.57
2023-02-13T18:59:43.609Z,9.93
2023-02-13T19:02:10.567Z,9.43
2023-02-13T19:04:38.218Z,8.80
2023-02-13T19:07:04.903Z,9.87
2023-02-13T19:09:32.028Z,9.07
2023-02-13T19:11:58.792Z,8.77
2023-02-13T19:14:26.712Z,8.53
2023-02-13T19:16:53.500Z,8.40
2023-02-13T19:19:20.135Z,9.80
2023-02-13T19:21:47.518Z,8.93
2023-02-13T19:24:15.566Z,7.90
2023-02-13T19:26:42.448Z,10.60
2023-02-13T19:29:09.123Z,9.97
2023-02-13T19:31:36.469Z,11.00
2023-02-13T19:34:05.757Z,10.47
2023-02-13T19:36:32.720Z,9.47
2023-02-13T19:39:03.331Z,10.87
2023-02-13T19:41:32.726Z,11.03
2023-02-13T19:44:00.901Z,10.30
2023-02-13T19:46:30.577Z,9.73
2023-02-13T19:48:57.886Z,10.63
2023-02-13T19:51:27.779Z,10.73
2023-02-13T19:53:58.593Z,11.47
2023-02-13T19:56:27.311Z,11.83
2023-02-13T19:58:54.105Z,11.47
2023-02-13T20:01:23.673Z,10.97
2023-02-13T20:03:50.892Z,11.80
2023-02-13T20:06:20.550Z,8.90
2023-02-13T20:08:47.637Z,11.03
2023-02-13T20:11:16.738Z,11.03
2023-02-13T20:13:43.812Z,11.13
2023-02-13T20:16:13.331Z,11.03
2023-02-13T20:18:41.026Z,11.57
2023-02-13T20:21:10.638Z,11.23
2023-02-13T20:23:37.552Z,10.03
2023-02-13T20:26:10.924Z,10.27
2023-02-13T20:28:38.349Z,11.03
2023-02-13T20:31:12.541Z,10.93
2023-02-13T20:33:40.342Z,9.77
2023-02-13T20:36:15.846Z,10.17
2023-02-13T20:38:43.136Z,11.50
2023-02-13T20:41:15.922Z,10.63
2023-02-13T20:43:42.917Z,9.50
2023-02-13T20:46:10.407Z,11.03
2023-02-13T20:48:41.440Z,10.37
2023-02-13T20:51:11.799Z,10.70
2023-02-13T20:53:39.199Z,10.93
2023-02-13T20:56:10.809Z,11.07
2023-02-13T20:58:38.385Z,11.63
2023-02-13T21:01:19.164Z,13.80
2023-02-13T21:03:48.326Z,12.30
2023-02-13T21:06:15.825Z,10.83
2023-02-13T21:08:43.735Z,12.40
2023-02-13T21:11:10.808Z,13.90
2023-02-13T21:13:40.279Z,13.40
2023-02-13T21:16:22.393Z,12.37
2023-02-13T21:18:53.723Z,11.20
2023-02-13T21:21:25.165Z,11.37
2023-02-13T21:23:56.394Z,10.23
2023-02-13T21:26:23.967Z,11.10
2023-02-13T21:28:52.064Z,10.40
2023-02-13T21:31:25.777Z,11.47
2023-02-13T21:33:53.022Z,8.07
2023-02-13T21:36:20.249Z,10.87
2023-02-13T21:38:47.036Z,11.47
2023-02-13T21:41:16.214Z,10.43
2023-02-13T21:43:46.730Z,9.90
2023-02-13T21:46:28.266Z,10.10
2023-02-13T21:48:59.986Z,10.87
2023-02-13T21:51:28.364Z,8.70
2023-02-13T21:53:55.233Z,11.20
2023-02-13T21:56:33.114Z,10.50
2023-02-13T21:58:59.823Z,10.10
2023-02-13T22:01:32.565Z,9.57
2023-02-13T22:04:01.428Z,10.50
2023-02-13T22:06:30.282Z,10.17
2023-02-13T22:09:02.084Z,9.87
2023-02-13T22:11:29.399Z,10.13
2023-02-13T22:13:58.633Z,10.10
2023-02-13T22:16:25.403Z,11.53
2023-02-13T22:18:52.116Z,10.13
2023-02-13T22:21:20.841Z,11.73
2023-02-13T22:23:48.170Z,11.20
2023-02-13T22:26:23.490Z,10.23
2023-02-13T22:28:50.934Z,9.77
2023-02-13T22:31:18.330Z,10.27
2023-02-13T22:33:49.839Z,9.90
2023-02-13T22:36:22.131Z,11.13
2023-02-13T22:38:50.053Z,10.47
2023-02-13T22:41:26.714Z,10.13
2023-02-13T22:43:53.734Z,10.83
2023-02-13T22:46:23.064Z,10.50
2023-02-13T22:48:52.301Z,10.43
2023-02-13T22:51:21.491Z,10.93
2023-02-13T22:53:50.989Z,11.73
2023-02-13T22:56:17.753Z,10.27
2023-02-13T22:58:44.376Z,11.47
2023-02-13T23:01:16.382Z,12.63
2023-02-13T23:03:43.329Z,10.97
2023-02-13T23:06:11.107Z,11.23
2023-02-13T23:08:38.604Z,11.93
2023-02-13T23:11:26.572Z,11.00
2023-02-13T23:13:53.293Z,11.33
2023-02-13T23:16:20.147Z,11.77
2023-02-13T23:18:57.249Z,10.93
2023-02-13T23:21:25.190Z,11.57
2023-02-13T23:23:51.943Z,11.13
2023-02-13T23:26:18.803Z,11.07
2023-02-13T23:28:45.604Z,11.30
2023-02-13T23:31:12.382Z,12.07
2023-02-13T23:33:39.137Z,10.87
2023-02-13T23:36:06.265Z,10.30
2023-02-13T23:38:32.927Z,10.93
2023-02-13T23:41:07.436Z,10.53
2023-02-13T23:43:34.133Z,11.23
2023-02-13T23:46:04.176Z,10.50
2023-02-13T23:48:31.364Z,11.47
2023-02-13T23:50:58.486Z,10.37
2023-02-13T23:53:25.617Z,11.10
2023-02-13T23:55:52.285Z,10.27
2023-02-13T23:58:18.957Z,12.23
